createdAt,value
2019-05-26T00:00:50.788Z,86.60
2019-05-26T00:03:19.582Z,87.10
2019-05-26T00:05:48.018Z,86.70
2019-05-26T00:08:16.876Z,87.00
2019-05-26T00:10:45.330Z,87.80
2019-05-26T00:13:13.843Z,87.80
2019-05-26T00:15:42.341Z,88.50
2019-05-26T00:18:10.768Z,89.10
2019-05-26T00:20:39.271Z,88.70
2019-05-26T00:23:08.038Z,88.60
2019-05-26T00:25:36.469Z,89.30
2019-05-26T00:28:05.209Z,88.90
2019-05-26T00:30:33.991Z,88.20
2019-05-26T00:33:02.421Z,88.60
2019-05-26T00:35:30.875Z,88.30
2019-05-26T00:37:59.333Z,88.20
2019-05-26T00:40:27.834Z,87.90
2019-05-26T00:42:56.701Z,88.10
2019-05-26T00:45:25.204Z,88.10
2019-05-26T00:47:53.628Z,88.20
2019-05-26T00:50:24.844Z,88.60
2019-05-26T00:52:56.574Z,89.00
2019-05-26T00:55:23.848Z,89.00
2019-05-26T00:57:52.609Z,88.30
2019-05-26T01:00:41.571Z,88.20
2019-05-26T01:03:10.738Z,87.90
2019-05-26T01:05:39.244Z,87.80
2019-05-26T01:08:08.521Z,87.80
2019-05-26T01:10:37.118Z,88.40
2019-05-26T01:13:06.845Z,88.80
2019-05-26T01:15:35.384Z,88.50
2019-05-26T01:18:04.517Z,89.20
2019-05-26T01:20:32.960Z,88.60
2019-05-26T01:23:01.402Z,88.40
2019-05-26T01:25:29.853Z,88.70
2019-05-26T01:27:58.657Z,89.40
2019-05-26T01:30:37.981Z,90.00
2019-05-26T01:33:07.078Z,90.30
2019-05-26T01:35:39.386Z,90.40
2019-05-26T01:38:22.359Z,90.40
2019-05-26T01:40:44.041Z,90.40
2019-05-26T01:43:13.195Z,90.40
2019-05-26T01:45:41.998Z,90.50
2019-05-26T01:48:10.512Z,90.40
2019-05-26T01:50:39.448Z,90.20
2019-05-26T01:53:08.208Z,90.60
2019-05-26T01:55:36.641Z,90.70
2019-05-26T01:58:05.602Z,90.90
2019-05-26T02:00:34.390Z,90.80
2019-05-26T02:03:02.814Z,90.90
2019-05-26T02:05:31.363Z,90.60
2019-05-26T02:07:59.790Z,90.70
2019-05-26T02:10:28.297Z,91.20
2019-05-26T02:12:57.012Z,90.80
2019-05-26T02:15:26.099Z,90.80
2019-05-26T02:17:54.542Z,91.00
2019-05-26T02:20:23.442Z,90.80
2019-05-26T02:22:51.861Z,90.80
2019-05-26T02:25:21.556Z,91.20
2019-05-26T02:27:50.340Z,91.10
2019-05-26T02:30:19.129Z,91.30
2019-05-26T02:32:47.693Z,91.40
2019-05-26T02:35:16.612Z,91.60
2019-05-26T02:37:45.073Z,91.60
2019-05-26T02:40:14.805Z,91.70
2019-05-26T02:42:43.233Z,91.70
2019-05-26T02:45:15.043Z,91.80
2019-05-26T02:47:44.847Z,91.70
2019-05-26T02:50:14.716Z,92.00
2019-05-26T02:52:43.478Z,92.10
2019-05-26T02:55:12.377Z,92.00
2019-05-26T02:57:40.812Z,92.00
2019-05-26T03:00:11.868Z,92.10
2019-05-26T03:02:40.676Z,92.00
2019-05-26T03:05:13.031Z,92.00
2019-05-26T03:07:45.335Z,92.00
2019-05-26T03:10:14.691Z,92.10
2019-05-26T03:12:43.735Z,92.40
2019-05-26T03:15:13.781Z,92.40
2019-05-26T03:17:43.131Z,92.40
2019-05-26T03:20:13.857Z,92.50
2019-05-26T03:22:43.246Z,92.30
2019-05-26T03:25:12.761Z,91.90
2019-05-26T03:27:41.320Z,91.90
2019-05-26T03:30:10.387Z,92.10
2019-05-26T03:32:39.287Z,92.20
2019-05-26T03:35:09.341Z,92.20
2019-05-26T03:37:37.794Z,92.10
2019-05-26T03:40:10.607Z,91.80
2019-05-26T03:42:39.068Z,91.80
2019-05-26T03:45:08.566Z,91.70
2019-05-26T03:47:37.135Z,91.90
2019-05-26T03:50:09.264Z,91.90
2019-05-26T03:52:37.761Z,92.00
2019-05-26T03:55:08.900Z,91.70
2019-05-26T03:57:37.333Z,91.80
2019-05-26T04:00:07.465Z,92.00
2019-05-26T04:02:36.355Z,91.90
2019-05-26T04:05:08.090Z,91.90
2019-05-26T04:07:36.585Z,91.80
2019-05-26T04:10:07.020Z,91.70
2019-05-26T04:12:35.531Z,91.60
2019-05-26T04:15:08.292Z,91.80
2019-05-26T04:17:37.146Z,91.70
2019-05-26T04:20:06.956Z,91.70
2019-05-26T04:22:35.398Z,91.50
2019-05-26T04:25:05.036Z,91.50
2019-05-26T04:27:33.553Z,91.40
2019-05-26T04:30:02.082Z,91.50
2019-05-26T04:32:30.613Z,91.50
2019-05-26T04:34:59.039Z,91.40
2019-05-26T04:37:27.770Z,91.10
2019-05-26T04:39:56.189Z,91.10
2019-05-26T04:42:24.982Z,90.70
2019-05-26T04:44:53.714Z,90.70
2019-05-26T04:47:22.153Z,90.80
2019-05-26T04:49:50.598Z,90.80
2019-05-26T04:52:19.385Z,91.00
2019-05-26T04:54:48.258Z,90.60
2019-05-26T04:57:16.694Z,90.80
2019-05-26T04:59:45.170Z,90.80
2019-05-26T05:02:13.681Z,90.80
2019-05-26T05:04:42.111Z,90.60
2019-05-26T05:07:10.541Z,90.20
2019-05-26T05:09:38.980Z,90.20
2019-05-26T05:12:07.473Z,90.10
2019-05-26T05:14:35.916Z,90.10
2019-05-26T05:17:04.345Z,89.20
2019-05-26T05:19:33.053Z,88.80
2019-05-26T05:22:01.492Z,88.40
2019-05-26T05:24:29.925Z,88.20
2019-05-26T05:26:58.349Z,87.70
2019-05-26T05:29:26.792Z,87.80
2019-05-26T05:31:55.225Z,87.90
2019-05-26T05:34:23.909Z,88.30
2019-05-26T05:36:52.608Z,87.00
2019-05-26T05:39:21.036Z,86.70
2019-05-26T05:41:49.469Z,87.20
2019-05-26T05:44:18.274Z,86.10
2019-05-26T05:46:46.697Z,86.80
2019-05-26T05:49:15.136Z,86.00
2019-05-26T05:51:43.813Z,86.00
2019-05-26T05:54:12.254Z,86.80
2019-05-26T05:56:40.741Z,85.30
2019-05-26T05:59:09.195Z,84.80
2019-05-26T06:01:37.624Z,84.00
2019-05-26T06:04:06.063Z,83.80
2019-05-26T06:06:34.806Z,83.20
2019-05-26T06:09:03.420Z,82.90
2019-05-26T06:11:31.849Z,82.20
2019-05-26T06:14:00.289Z,81.90
2019-05-26T06:16:29.029Z,79.90
2019-05-26T06:18:57.822Z,79.40
2019-05-26T06:21:26.274Z,79.50
2019-05-26T06:23:54.740Z,78.60
2019-05-26T06:26:23.481Z,78.60
2019-05-26T06:28:52.637Z,77.00
2019-05-26T06:31:21.456Z,76.30
2019-05-26T06:33:50.241Z,75.80
2019-05-26T06:36:18.732Z,76.40
2019-05-26T06:38:47.192Z,75.60
2019-05-26T06:41:30.384Z,75.10
2019-05-26T06:43:45.800Z,73.90
2019-05-26T06:46:14.610Z,73.20
2019-05-26T06:48:43.054Z,71.40
2019-05-26T06:51:11.474Z,71.70
2019-05-26T06:53:39.918Z,70.50
2019-05-26T06:56:08.828Z,70.40
2019-05-26T06:58:37.342Z,68.60
2019-05-26T07:01:06.118Z,66.40
2019-05-26T07:03:34.616Z,67.30
2019-05-26T07:06:03.186Z,66.20
2019-05-26T07:08:31.613Z,65.70
2019-05-26T07:11:00.049Z,64.20
2019-05-26T07:13:28.544Z,64.00
2019-05-26T07:15:57.261Z,62.00
2019-05-26T07:18:25.691Z,62.20
2019-05-26T07:20:54.454Z,62.50
2019-05-26T07:23:23.333Z,60.50
2019-05-26T07:25:52.017Z,61.80
2019-05-26T07:28:20.707Z,61.20
2019-05-26T07:30:49.144Z,60.20
2019-05-26T07:33:17.881Z,60.40
2019-05-26T07:35:49.668Z,59.00
2019-05-26T07:38:16.847Z,58.50
2019-05-26T07:40:45.369Z,57.80
2019-05-26T07:43:13.792Z,58.10
2019-05-26T07:45:42.245Z,58.60
2019-05-26T07:48:11.194Z,58.70
2019-05-26T07:50:39.897Z,58.50
2019-05-26T07:53:08.595Z,58.50
2019-05-26T07:55:37.382Z,57.40
2019-05-26T07:58:05.870Z,57.70
2019-05-26T08:00:34.742Z,57.00
2019-05-26T08:03:03.161Z,55.80
2019-05-26T08:05:31.905Z,55.40
2019-05-26T08:08:12.074Z,56.80
2019-05-26T08:10:30.757Z,57.20
2019-05-26T08:12:59.183Z,54.90
2019-05-26T08:15:27.612Z,53.10
2019-05-26T08:17:56.037Z,54.00
2019-05-26T08:20:24.541Z,54.10
2019-05-26T08:22:53.217Z,52.90
2019-05-26T08:25:21.901Z,53.10
2019-05-26T08:27:50.324Z,53.50
2019-05-26T08:30:19.470Z,53.90
2019-05-26T08:32:47.892Z,53.20
2019-05-26T08:35:16.414Z,54.10
2019-05-26T08:37:45.081Z,51.70
2019-05-26T08:40:19.603Z,52.70
2019-05-26T08:42:52.339Z,52.10
2019-05-26T08:45:23.175Z,53.20
2019-05-26T08:47:52.270Z,52.10
2019-05-26T08:50:22.021Z,51.80
2019-05-26T08:52:50.451Z,50.00
2019-05-26T08:55:19.475Z,51.50
2019-05-26T08:57:47.953Z,51.80
2019-05-26T09:00:18.520Z,52.10
2019-05-26T09:02:47.457Z,52.40
2019-05-26T09:05:17.494Z,52.30
2019-05-26T09:07:46.024Z,51.90
2019-05-26T09:10:16.289Z,52.40
2019-05-26T09:12:59.670Z,51.60
2019-05-26T09:15:16.914Z,51.90
2019-05-26T09:17:45.382Z,51.80
2019-05-26T09:20:14.213Z,50.40
2019-05-26T09:22:43.084Z,52.10
2019-05-26T09:25:11.817Z,50.10
2019-05-26T09:27:40.285Z,49.20
2019-05-26T09:30:09.191Z,52.10
2019-05-26T09:32:38.022Z,50.90
2019-05-26T09:35:08.552Z,49.70
2019-05-26T09:37:37.334Z,50.10
2019-05-26T09:40:09.938Z,49.90
2019-05-26T09:42:38.681Z,51.40
2019-05-26T09:45:09.468Z,50.60
2019-05-26T09:47:38.132Z,50.80
2019-05-26T09:50:07.845Z,50.40
2019-05-26T09:52:37.246Z,50.10
2019-05-26T09:55:09.677Z,47.00
2019-05-26T09:57:38.124Z,46.70
2019-05-26T10:00:08.526Z,48.40
2019-05-26T10:02:37.019Z,47.40
2019-05-26T10:05:06.717Z,48.20
2019-05-26T10:07:35.146Z,47.90
2019-05-26T10:10:06.097Z,48.40
2019-05-26T10:12:34.593Z,47.00
2019-05-26T10:15:04.500Z,47.10
2019-05-26T10:17:33.199Z,47.00
2019-05-26T10:20:01.657Z,46.60
2019-05-26T10:22:30.101Z,46.50
2019-05-26T10:24:58.863Z,46.00
2019-05-26T10:27:27.291Z,46.00
2019-05-26T10:29:55.824Z,45.10
2019-05-26T10:32:24.254Z,44.30
2019-05-26T10:34:52.724Z,45.90
2019-05-26T10:37:21.153Z,45.10
2019-05-26T10:39:49.695Z,45.10
2019-05-26T10:42:18.113Z,44.10
2019-05-26T10:44:46.589Z,44.30
2019-05-26T10:47:15.012Z,45.00
2019-05-26T10:49:43.541Z,43.10
2019-05-26T10:52:11.958Z,43.80
2019-05-26T10:54:40.717Z,45.00
2019-05-26T10:57:09.150Z,45.60
2019-05-26T10:59:37.613Z,45.20
2019-05-26T11:02:06.109Z,45.40
2019-05-26T11:04:34.570Z,44.40
2019-05-26T11:07:03.302Z,43.40
2019-05-26T11:09:31.766Z,43.60
2019-05-26T11:12:00.197Z,44.50
2019-05-26T11:14:28.661Z,45.00
2019-05-26T11:16:57.345Z,44.10
2019-05-26T11:19:25.811Z,44.10
2019-05-26T11:21:54.239Z,44.10
2019-05-26T11:24:22.664Z,43.20
2019-05-26T11:26:51.149Z,42.10
2019-05-26T11:29:19.677Z,42.20
2019-05-26T11:31:48.537Z,42.80
2019-05-26T11:34:16.970Z,42.70
2019-05-26T11:36:45.512Z,41.20
2019-05-26T11:39:14.297Z,42.00
2019-05-26T11:41:43.073Z,41.80
2019-05-26T11:44:18.037Z,42.70
2019-05-26T11:46:42.005Z,42.80
2019-05-26T11:49:10.465Z,41.60
2019-05-26T11:51:39.276Z,43.20
2019-05-26T11:54:07.830Z,43.50
2019-05-26T11:56:36.631Z,43.90
2019-05-26T11:59:05.578Z,44.10
2019-05-26T12:01:34.064Z,44.00
2019-05-26T12:04:02.497Z,43.60
2019-05-26T12:06:31.277Z,42.10
2019-05-26T12:09:00.217Z,42.70
2019-05-26T12:11:28.694Z,44.00
2019-05-26T12:13:57.113Z,43.70
2019-05-26T12:16:28.775Z,43.50
2019-05-26T12:18:56.449Z,41.80
2019-05-26T12:21:25.321Z,43.20
2019-05-26T12:23:55.084Z,42.20
2019-05-26T12:26:24.231Z,43.00
2019-05-26T12:28:52.917Z,40.30
2019-05-26T12:31:21.374Z,40.50
2019-05-26T12:33:49.802Z,41.60
2019-05-26T12:36:18.513Z,40.30
2019-05-26T12:38:53.032Z,40.20
2019-05-26T12:41:22.265Z,40.40
2019-05-26T12:43:50.696Z,42.10
2019-05-26T12:46:19.465Z,41.50
2019-05-26T12:48:47.891Z,41.20
2019-05-26T12:51:16.821Z,40.40
2019-05-26T12:53:45.356Z,43.00
2019-05-26T12:56:13.781Z,43.00
2019-05-26T12:58:42.269Z,40.30
2019-05-26T13:01:10.924Z,39.90
2019-05-26T13:03:39.470Z,40.40
2019-05-26T13:06:08.408Z,41.20
2019-05-26T13:08:37.205Z,38.90
2019-05-26T13:11:05.636Z,38.70
2019-05-26T13:13:34.562Z,37.90
2019-05-26T13:16:03.018Z,40.50
2019-05-26T13:18:31.478Z,40.60
2019-05-26T13:21:00.355Z,40.00
2019-05-26T13:23:28.808Z,40.90
2019-05-26T13:25:57.240Z,41.50
2019-05-26T13:28:25.703Z,40.00
2019-05-26T13:30:56.753Z,40.60
2019-05-26T13:33:25.215Z,40.80
2019-05-26T13:35:53.710Z,41.40
2019-05-26T13:38:22.210Z,39.90
2019-05-26T13:40:50.721Z,40.20
2019-05-26T13:43:19.177Z,40.10
2019-05-26T13:45:48.003Z,41.00
2019-05-26T13:48:16.464Z,41.40
2019-05-26T13:50:44.892Z,42.10
2019-05-26T13:53:13.318Z,42.10
2019-05-26T13:55:42.130Z,42.30
2019-05-26T13:58:11.149Z,40.50
2019-05-26T14:00:39.674Z,40.90
2019-05-26T14:03:08.125Z,41.50
2019-05-26T14:05:36.868Z,41.10
2019-05-26T14:08:05.301Z,42.60
2019-05-26T14:10:37.592Z,40.10
2019-05-26T14:13:07.701Z,41.40
2019-05-26T14:15:38.628Z,41.50
2019-05-26T14:18:07.368Z,42.20
2019-05-26T14:20:37.633Z,42.10
2019-05-26T14:23:07.727Z,41.80
2019-05-26T14:25:36.697Z,42.20
2019-05-26T14:28:07.029Z,42.10
2019-05-26T14:30:37.344Z,42.60
2019-05-26T14:33:05.939Z,43.40
2019-05-26T14:35:34.409Z,42.40
2019-05-26T14:38:02.839Z,43.10
2019-05-26T14:40:31.380Z,42.70
2019-05-26T14:42:59.839Z,42.70
2019-05-26T14:45:28.639Z,42.10
2019-05-26T14:47:57.081Z,42.90
2019-05-26T14:50:25.803Z,43.80
2019-05-26T14:52:54.233Z,43.90
2019-05-26T14:55:22.692Z,42.90
2019-05-26T14:57:51.444Z,42.00
2019-05-26T15:00:21.978Z,41.30
2019-05-26T15:02:50.427Z,42.50
2019-05-26T15:05:19.182Z,40.90
2019-05-26T15:07:47.610Z,41.80
2019-05-26T15:10:16.598Z,42.20
2019-05-26T15:12:45.040Z,40.60
2019-05-26T15:15:14.582Z,41.60
2019-05-26T15:17:43.005Z,41.40
2019-05-26T15:20:13.522Z,42.20
2019-05-26T15:22:41.952Z,41.70
2019-05-26T15:25:10.864Z,41.00
2019-05-26T15:27:39.365Z,41.60
2019-05-26T15:30:10.717Z,40.40
2019-05-26T15:32:39.145Z,40.50
2019-05-26T15:35:08.709Z,40.80
2019-05-26T15:37:37.463Z,41.80
2019-05-26T15:40:09.142Z,41.70
2019-05-26T15:42:37.825Z,42.80
2019-05-26T15:45:07.429Z,41.90
2019-05-26T15:47:35.862Z,42.10
2019-05-26T15:50:05.988Z,40.80
2019-05-26T15:52:34.819Z,41.90
2019-05-26T15:55:03.349Z,41.50
2019-05-26T15:57:32.221Z,41.70
2019-05-26T16:00:00.782Z,42.10
2019-05-26T16:02:29.241Z,42.80
2019-05-26T16:04:59.038Z,42.20
2019-05-26T16:07:27.786Z,42.20
2019-05-26T16:09:56.262Z,43.00
2019-05-26T16:12:25.019Z,43.30
2019-05-26T16:14:53.602Z,43.20
2019-05-26T16:17:22.280Z,43.80
2019-05-26T16:19:50.749Z,43.70
2019-05-26T16:22:19.246Z,44.60
2019-05-26T16:24:47.715Z,44.60
2019-05-26T16:27:19.450Z,44.90
2019-05-26T16:29:46.831Z,45.60
2019-05-26T16:32:18.752Z,45.20
2019-05-26T16:34:46.219Z,45.10
2019-05-26T16:37:14.685Z,45.60
2019-05-26T16:39:43.135Z,45.30
2019-05-26T16:42:11.908Z,45.60
2019-05-26T16:44:40.335Z,46.00
2019-05-26T16:47:08.802Z,46.00
2019-05-26T16:49:37.240Z,46.10
2019-05-26T16:52:06.750Z,46.20
2019-05-26T16:54:35.957Z,46.10
2019-05-26T16:57:04.804Z,47.10
2019-05-26T16:59:33.244Z,46.20
2019-05-26T17:02:01.780Z,46.60
2019-05-26T17:04:30.235Z,47.60
2019-05-26T17:06:59.022Z,47.50
2019-05-26T17:09:27.459Z,47.30
2019-05-26T17:11:55.970Z,47.00
2019-05-26T17:14:24.617Z,47.80
2019-05-26T17:16:53.303Z,47.10
2019-05-26T17:19:21.893Z,46.80
2019-05-26T17:21:50.641Z,45.90
2019-05-26T17:24:19.118Z,46.00
2019-05-26T17:26:47.972Z,46.70
2019-05-26T17:29:16.398Z,46.90
2019-05-26T17:31:44.883Z,47.30
2019-05-26T17:34:14.705Z,47.50
2019-05-26T17:36:43.806Z,48.10
2019-05-26T17:39:12.263Z,48.20
2019-05-26T17:41:40.730Z,48.00
2019-05-26T17:44:09.157Z,48.60
2019-05-26T17:46:37.626Z,48.90
2019-05-26T17:49:06.059Z,50.30
2019-05-26T17:51:34.558Z,49.50
2019-05-26T17:54:03.279Z,49.90
2019-05-26T17:56:31.766Z,49.90
2019-05-26T17:59:00.433Z,50.20
2019-05-26T18:01:29.247Z,51.40
2019-05-26T18:03:57.954Z,51.10
2019-05-26T18:06:26.933Z,50.50
2019-05-26T18:08:55.698Z,51.30
2019-05-26T18:11:24.187Z,51.70
2019-05-26T18:13:52.645Z,52.50
2019-05-26T18:16:21.423Z,51.80
2019-05-26T18:18:50.260Z,51.90
2019-05-26T18:21:18.738Z,53.30
2019-05-26T18:23:47.172Z,53.10
2019-05-26T18:26:16.102Z,53.10
2019-05-26T18:28:44.871Z,53.60
2019-05-26T18:31:13.658Z,53.60
2019-05-26T18:33:42.446Z,53.80
2019-05-26T18:36:10.916Z,54.10
2019-05-26T18:38:39.345Z,54.20
2019-05-26T18:41:08.111Z,54.80
2019-05-26T18:43:36.880Z,54.80
2019-05-26T18:46:05.785Z,55.10
2019-05-26T18:48:34.473Z,55.60
2019-05-26T18:51:03.150Z,56.50
2019-05-26T18:53:31.877Z,57.00
2019-05-26T18:56:00.616Z,57.10
2019-05-26T18:58:29.265Z,57.30
2019-05-26T19:00:57.988Z,58.10
2019-05-26T19:03:27.295Z,58.90
2019-05-26T19:05:55.725Z,59.90
2019-05-26T19:08:24.292Z,61.60
2019-05-26T19:10:52.716Z,62.50
2019-05-26T19:13:21.193Z,64.00
2019-05-26T19:15:49.945Z,63.50
2019-05-26T19:18:20.600Z,63.20
2019-05-26T19:20:48.960Z,64.00
2019-05-26T19:23:17.796Z,64.80
2019-05-26T19:25:46.465Z,63.80
2019-05-26T19:28:14.936Z,61.40
2019-05-26T19:30:45.710Z,61.40
2019-05-26T19:33:13.901Z,61.60
2019-05-26T19:35:42.362Z,62.40
2019-05-26T19:38:10.828Z,63.50
2019-05-26T19:40:39.253Z,63.30
2019-05-26T19:43:08.000Z,63.80
2019-05-26T19:45:36.436Z,61.30
2019-05-26T19:48:04.901Z,62.10
2019-05-26T19:50:33.328Z,62.60
2019-05-26T19:53:01.787Z,62.70
2019-05-26T19:55:30.472Z,62.70
2019-05-26T19:57:59.188Z,62.90
2019-05-26T20:00:28.853Z,64.00
2019-05-26T20:02:57.764Z,62.40
2019-05-26T20:05:26.180Z,62.30
2019-05-26T20:07:54.644Z,62.90
2019-05-26T20:10:24.065Z,62.80
2019-05-26T20:12:52.533Z,63.80
2019-05-26T20:15:21.443Z,63.60
2019-05-26T20:17:49.929Z,64.20
2019-05-26T20:20:18.528Z,64.50
2019-05-26T20:22:46.968Z,64.10
2019-05-26T20:25:15.486Z,64.40
2019-05-26T20:27:44.164Z,64.50
2019-05-26T20:30:14.536Z,64.80
2019-05-26T20:32:42.962Z,64.50
2019-05-26T20:35:11.842Z,65.10
2019-05-26T20:37:40.520Z,67.10
2019-05-26T20:40:09.691Z,69.50
2019-05-26T20:42:38.243Z,70.00
2019-05-26T20:45:09.654Z,71.30
2019-05-26T20:47:38.329Z,72.40
2019-05-26T20:50:08.672Z,72.60
2019-05-26T20:52:37.107Z,72.70
2019-05-26T20:55:09.785Z,73.50
2019-05-26T20:57:39.081Z,74.00
2019-05-26T21:00:12.596Z,73.50
2019-05-26T21:02:40.979Z,71.90
2019-05-26T21:05:09.853Z,68.50
2019-05-26T21:07:38.540Z,67.60
2019-05-26T21:10:07.676Z,63.90
2019-05-26T21:12:36.359Z,65.10
2019-05-26T21:15:06.824Z,65.20
2019-05-26T21:17:35.498Z,68.20
2019-05-26T21:20:07.228Z,70.50
2019-05-26T21:22:35.681Z,71.20
2019-05-26T21:25:05.642Z,72.00
2019-05-26T21:27:34.084Z,71.90
2019-05-26T21:30:02.837Z,73.20
2019-05-26T21:32:31.626Z,72.70
2019-05-26T21:35:00.115Z,72.80
2019-05-26T21:37:28.854Z,73.00
2019-05-26T21:39:57.349Z,71.60
2019-05-26T21:42:25.840Z,71.00
2019-05-26T21:44:54.313Z,70.40
2019-05-26T21:47:22.826Z,69.80
2019-05-26T21:49:51.249Z,70.50
2019-05-26T21:52:19.694Z,71.20
2019-05-26T21:54:48.446Z,72.60
2019-05-26T21:57:17.133Z,73.50
2019-05-26T21:59:45.564Z,73.60
2019-05-26T22:02:14.301Z,71.70
2019-05-26T22:04:42.737Z,72.00
2019-05-26T22:07:11.906Z,72.10
2019-05-26T22:09:40.487Z,71.20
2019-05-26T22:12:09.173Z,68.90
2019-05-26T22:14:37.598Z,69.30
2019-05-26T22:17:06.281Z,68.50
2019-05-26T22:19:34.965Z,69.10
2019-05-26T22:22:03.416Z,68.30
2019-05-26T22:24:32.086Z,68.30
2019-05-26T22:27:00.526Z,66.30
2019-05-26T22:29:29.202Z,67.30
2019-05-26T22:31:57.644Z,67.00
2019-05-26T22:34:26.345Z,64.70
2019-05-26T22:36:54.823Z,64.70
2019-05-26T22:39:23.328Z,64.40
2019-05-26T22:41:51.762Z,64.50
2019-05-26T22:44:20.433Z,64.20
2019-05-26T22:46:48.882Z,65.20
2019-05-26T22:49:17.341Z,64.60
2019-05-26T22:51:45.791Z,64.80
2019-05-26T22:54:14.480Z,64.70
2019-05-26T22:56:42.936Z,64.10
2019-05-26T22:59:11.361Z,64.50
2019-05-26T23:01:39.825Z,63.70
2019-05-26T23:04:08.253Z,64.00
2019-05-26T23:06:36.951Z,63.30
2019-05-26T23:09:06.423Z,63.20
2019-05-26T23:11:34.983Z,63.80
2019-05-26T23:14:03.513Z,63.10
2019-05-26T23:16:32.267Z,63.20
2019-05-26T23:19:00.705Z,63.10
2019-05-26T23:21:29.523Z,64.00
2019-05-26T23:23:57.974Z,64.10
2019-05-26T23:26:26.693Z,63.00
2019-05-26T23:28:55.190Z,63.10
2019-05-26T23:31:23.653Z,62.40
2019-05-26T23:33:52.094Z,61.80
2019-05-26T23:36:20.517Z,61.60
2019-05-26T23:38:49.040Z,61.00
2019-05-26T23:41:17.778Z,61.10
2019-05-26T23:43:46.482Z,60.60
2019-05-26T23:46:15.261Z,60.70
2019-05-26T23:48:43.710Z,60.70
2019-05-26T23:51:12.137Z,61.20
2019-05-26T23:53:40.586Z,60.30
2019-05-26T23:56:09.267Z,60.70
2019-05-26T23:58:37.971Z,60.90
